sensor_id;sensor_type;location;lat;lon;timestamp;pressure;altitude;pressure_sealevel;temperature;humidity
61805;BME280;47725;47.912;7.356;2023-05-11T00:03:55;99156.84;;;14.78;62.18
61805;BME280;47725;47.912;7.356;2023-05-11T00:07:55;99156.55;;;14.80;61.75
61805;BME280;47725;47.912;7.356;2023-05-11T00:11:55;99156.31;;;14.80;62.83
61805;BME280;47725;47.912;7.356;2023-05-11T00:15:55;99156.00;;;14.80;62.54
61805;BME280;47725;47.912;7.356;2023-05-11T00:19:55;99155.03;;;14.81;62.21
61805;BME280;47725;47.912;7.356;2023-05-11T00:23:55;99154.44;;;14.81;62.78
61805;BME280;47725;47.912;7.356;2023-05-11T00:27:55;99153.71;;;14.77;63.30
61805;BME280;47725;47.912;7.356;2023-05-11T00:31:55;99152.24;;;14.77;62.84
61805;BME280;47725;47.912;7.356;2023-05-11T00:35:55;99150.31;;;14.74;63.29
61805;BME280;47725;47.912;7.356;2023-05-11T00:39:55;99148.47;;;14.71;63.51
61805;BME280;47725;47.912;7.356;2023-05-11T00:43:55;99146.14;;;14.73;62.73
61805;BME280;47725;47.912;7.356;2023-05-11T00:47:55;99143.81;;;14.76;62.65
61805;BME280;47725;47.912;7.356;2023-05-11T00:51:55;99141.10;;;14.78;62.71
61805;BME280;47725;47.912;7.356;2023-05-11T00:55:55;99136.91;;;14.79;62.83
61805;BME280;47725;47.912;7.356;2023-05-11T00:59:55;99134.51;;;14.82;62.60
61805;BME280;47725;47.912;7.356;2023-05-11T01:03:55;99132.76;;;14.83;62.82
61805;BME280;47725;47.912;7.356;2023-05-11T01:08:02;99129.92;;;14.82;63.02
61805;BME280;47725;47.912;7.356;2023-05-11T01:12:09;99126.86;;;14.79;63.39
61805;BME280;47725;47.912;7.356;2023-05-11T01:15:55;99124.84;;;14.76;63.46
61805;BME280;47725;47.912;7.356;2023-05-11T01:19:56;99123.77;;;14.74;63.54
61805;BME280;47725;47.912;7.356;2023-05-11T01:31:55;99121.44;;;14.69;63.41
61805;BME280;47725;47.912;7.356;2023-05-11T01:35:55;99121.11;;;14.67;63.53
61805;BME280;47725;47.912;7.356;2023-05-11T01:39:56;99121.71;;;14.64;63.79
61805;BME280;47725;47.912;7.356;2023-05-11T01:43:56;99121.07;;;14.59;64.07
61805;BME280;47725;47.912;7.356;2023-05-11T01:47:55;99120.73;;;14.54;64.11
61805;BME280;47725;47.912;7.356;2023-05-11T01:51:55;99119.80;;;14.51;64.03
61805;BME280;47725;47.912;7.356;2023-05-11T01:55:55;99118.77;;;14.49;63.95
61805;BME280;47725;47.912;7.356;2023-05-11T01:59:55;99119.59;;;14.49;63.76
61805;BME280;47725;47.912;7.356;2023-05-11T02:03:55;99121.00;;;14.50;63.82
61805;BME280;47725;47.912;7.356;2023-05-11T02:07:55;99121.56;;;14.49;63.82
61805;BME280;47725;47.912;7.356;2023-05-11T02:11:55;99121.78;;;14.49;63.80
61805;BME280;47725;47.912;7.356;2023-05-11T02:15:55;99122.80;;;14.50;63.75
61805;BME280;47725;47.912;7.356;2023-05-11T02:19:55;99124.06;;;14.51;63.64
61805;BME280;47725;47.912;7.356;2023-05-11T02:23:54;99124.72;;;14.51;63.69
61805;BME280;47725;47.912;7.356;2023-05-11T02:27:55;99127.07;;;14.50;63.79
61805;BME280;47725;47.912;7.356;2023-05-11T02:31:56;99128.66;;;14.49;63.71
61805;BME280;47725;47.912;7.356;2023-05-11T02:35:55;99130.24;;;14.49;63.80
61805;BME280;47725;47.912;7.356;2023-05-11T02:39:56;99130.06;;;14.49;63.73
61805;BME280;47725;47.912;7.356;2023-05-11T02:43:55;99129.67;;;14.49;63.69
61805;BME280;47725;47.912;7.356;2023-05-11T02:47:54;99130.66;;;14.49;63.73
61805;BME280;47725;47.912;7.356;2023-05-11T02:51:54;99131.37;;;14.54;62.85
61805;BME280;47725;47.912;7.356;2023-05-11T02:55:54;99131.52;;;14.57;63.20
61805;BME280;47725;47.912;7.356;2023-05-11T02:59:54;99130.81;;;14.54;64.06
61805;BME280;47725;47.912;7.356;2023-05-11T03:03:55;99129.43;;;14.50;64.28
61805;BME280;47725;47.912;7.356;2023-05-11T03:07:56;99127.91;;;14.52;63.52
61805;BME280;47725;47.912;7.356;2023-05-11T03:11:54;99127.43;;;14.57;63.11
61805;BME280;47725;47.912;7.356;2023-05-11T03:15:54;99126.01;;;14.63;62.96
61805;BME280;47725;47.912;7.356;2023-05-11T03:19:55;99124.53;;;14.63;63.69
61805;BME280;47725;47.912;7.356;2023-05-11T03:23:54;99121.70;;;14.60;63.74
61805;BME280;47725;47.912;7.356;2023-05-11T03:27:54;99119.56;;;14.56;63.96
61805;BME280;47725;47.912;7.356;2023-05-11T03:31:54;99117.16;;;14.51;64.26
61805;BME280;47725;47.912;7.356;2023-05-11T03:35:54;99115.92;;;14.45;64.39
61805;BME280;47725;47.912;7.356;2023-05-11T03:39:55;99113.73;;;14.41;64.36
61805;BME280;47725;47.912;7.356;2023-05-11T03:43:54;99111.63;;;14.37;64.47
61805;BME280;47725;47.912;7.356;2023-05-11T03:47:54;99109.34;;;14.33;64.64
61805;BME280;47725;47.912;7.356;2023-05-11T03:51:55;99107.40;;;14.30;64.83
61805;BME280;47725;47.912;7.356;2023-05-11T03:55:54;99105.74;;;14.27;64.98
61805;BME280;47725;47.912;7.356;2023-05-11T03:59:54;99103.16;;;14.27;64.80
61805;BME280;47725;47.912;7.356;2023-05-11T04:03:54;99100.25;;;14.27;64.61
61805;BME280;47725;47.912;7.356;2023-05-11T04:07:54;99097.66;;;14.28;64.71
61805;BME280;47725;47.912;7.356;2023-05-11T04:11:54;99096.34;;;14.28;64.91
61805;BME280;47725;47.912;7.356;2023-05-11T04:15:54;99096.36;;;14.29;64.81
61805;BME280;47725;47.912;7.356;2023-05-11T04:19:54;99096.31;;;14.30;64.68
61805;BME280;47725;47.912;7.356;2023-05-11T04:23:54;99096.59;;;14.32;64.55
61805;BME280;47725;47.912;7.356;2023-05-11T04:27:54;99095.92;;;14.33;64.74
61805;BME280;47725;47.912;7.356;2023-05-11T04:31:54;99094.70;;;14.33;64.87
61805;BME280;47725;47.912;7.356;2023-05-11T04:35:54;99094.80;;;14.34;64.92
61805;BME280;47725;47.912;7.356;2023-05-11T04:39:55;99095.32;;;14.34;65.14
61805;BME280;47725;47.912;7.356;2023-05-11T04:43:54;99095.97;;;14.35;65.06
61805;BME280;47725;47.912;7.356;2023-05-11T04:47:54;99095.98;;;14.36;65.09
61805;BME280;47725;47.912;7.356;2023-05-11T04:51:54;99096.91;;;14.37;65.22
61805;BME280;47725;47.912;7.356;2023-05-11T04:55:54;99098.92;;;14.38;65.19
61805;BME280;47725;47.912;7.356;2023-05-11T04:59:55;99099.16;;;14.40;65.07
61805;BME280;47725;47.912;7.356;2023-05-11T05:03:54;99100.02;;;14.42;65.05
61805;BME280;47725;47.912;7.356;2023-05-11T05:07:54;99102.01;;;14.44;65.22
61805;BME280;47725;47.912;7.356;2023-05-11T05:11:57;99103.77;;;14.45;65.28
61805;BME280;47725;47.912;7.356;2023-05-11T05:15:54;99106.12;;;14.48;65.26
61805;BME280;47725;47.912;7.356;2023-05-11T05:19:54;99107.78;;;14.50;65.26
61805;BME280;47725;47.912;7.356;2023-05-11T05:23:54;99110.36;;;14.53;65.03
61805;BME280;47725;47.912;7.356;2023-05-11T05:27:54;99115.78;;;14.56;65.25
61805;BME280;47725;47.912;7.356;2023-05-11T05:31:54;99121.23;;;14.59;65.18
61805;BME280;47725;47.912;7.356;2023-05-11T05:35:54;99124.75;;;14.62;65.22
61805;BME280;47725;47.912;7.356;2023-05-11T05:39:54;99127.53;;;14.62;65.52
61805;BME280;47725;47.912;7.356;2023-05-11T05:43:54;99130.21;;;14.64;65.28
61805;BME280;47725;47.912;7.356;2023-05-11T05:47:54;99132.48;;;14.68;65.06
61805;BME280;47725;47.912;7.356;2023-05-11T05:51:54;99133.95;;;14.73;64.92
61805;BME280;47725;47.912;7.356;2023-05-11T05:55:54;99134.30;;;14.78;64.97
61805;BME280;47725;47.912;7.356;2023-05-11T05:59:54;99134.18;;;14.82;64.70
61805;BME280;47725;47.912;7.356;2023-05-11T06:03:54;99133.74;;;14.85;64.67
61805;BME280;47725;47.912;7.356;2023-05-11T06:07:54;99133.09;;;14.89;64.72
61805;BME280;47725;47.912;7.356;2023-05-11T06:11:54;99132.17;;;14.93;64.43
61805;BME280;47725;47.912;7.356;2023-05-11T06:15:54;99131.22;;;14.96;64.50
61805;BME280;47725;47.912;7.356;2023-05-11T06:19:54;99129.96;;;14.99;64.44
61805;BME280;47725;47.912;7.356;2023-05-11T06:23:54;99127.59;;;15.02;64.30
61805;BME280;47725;47.912;7.356;2023-05-11T06:27:54;99125.19;;;15.07;64.24
61805;BME280;47725;47.912;7.356;2023-05-11T06:31:54;99122.71;;;15.11;64.21
61805;BME280;47725;47.912;7.356;2023-05-11T06:35:54;99120.71;;;15.17;64.22
61805;BME280;47725;47.912;7.356;2023-05-11T06:39:54;99119.95;;;15.23;64.09
61805;BME280;47725;47.912;7.356;2023-05-11T06:43:54;99119.83;;;15.30;63.91
61805;BME280;47725;47.912;7.356;2023-05-11T06:47:54;99118.41;;;15.38;63.57
61805;BME280;47725;47.912;7.356;2023-05-11T06:51:54;99118.10;;;15.47;63.36
61805;BME280;47725;47.912;7.356;2023-05-11T06:55:54;99117.10;;;15.55;63.42
61805;BME280;47725;47.912;7.356;2023-05-11T06:59:54;99116.24;;;15.65;62.96
61805;BME280;47725;47.912;7.356;2023-05-11T07:03:54;99115.77;;;15.74;62.89
61805;BME280;47725;47.912;7.356;2023-05-11T07:07:54;99115.83;;;15.85;62.35
61805;BME280;47725;47.912;7.356;2023-05-11T07:11:54;99116.05;;;15.94;62.33
61805;BME280;47725;47.912;7.356;2023-05-11T07:15:54;99117.38;;;16.03;61.88
61805;BME280;47725;47.912;7.356;2023-05-11T07:19:54;99118.40;;;16.11;61.91
61805;BME280;47725;47.912;7.356;2023-05-11T07:23:54;99119.84;;;16.19;61.80
61805;BME280;47725;47.912;7.356;2023-05-11T07:27:54;99122.08;;;16.27;61.54
61805;BME280;47725;47.912;7.356;2023-05-11T07:31:54;99124.11;;;16.34;61.24
61805;BME280;47725;47.912;7.356;2023-05-11T07:35:54;99126.09;;;16.41;61.14
61805;BME280;47725;47.912;7.356;2023-05-11T07:39:54;99127.69;;;16.47;60.96
61805;BME280;47725;47.912;7.356;2023-05-11T07:43:54;99128.91;;;16.52;60.91
61805;BME280;47725;47.912;7.356;2023-05-11T07:47:54;99129.28;;;16.58;60.23
61805;BME280;47725;47.912;7.356;2023-05-11T07:51:54;99128.42;;;16.61;60.07
61805;BME280;47725;47.912;7.356;2023-05-11T07:55:54;99128.52;;;16.64;59.60
61805;BME280;47725;47.912;7.356;2023-05-11T07:59:54;99128.39;;;16.66;59.83
61805;BME280;47725;47.912;7.356;2023-05-11T08:03:54;99128.92;;;16.68;59.68
61805;BME280;47725;47.912;7.356;2023-05-11T08:07:54;99128.52;;;16.70;59.68
61805;BME280;47725;47.912;7.356;2023-05-11T08:11:54;99127.98;;;16.74;59.51
61805;BME280;47725;47.912;7.356;2023-05-11T08:15:54;99127.20;;;16.77;59.15
61805;BME280;47725;47.912;7.356;2023-05-11T08:19:54;99127.22;;;16.81;59.01
61805;BME280;47725;47.912;7.356;2023-05-11T08:23:54;99127.50;;;16.84;59.12
61805;BME280;47725;47.912;7.356;2023-05-11T08:27:54;99127.25;;;16.88;58.95
61805;BME280;47725;47.912;7.356;2023-05-11T08:31:54;99127.28;;;16.91;58.72
61805;BME280;47725;47.912;7.356;2023-05-11T08:35:54;99126.37;;;16.93;58.80
61805;BME280;47725;47.912;7.356;2023-05-11T08:39:54;99125.56;;;16.96;58.69
61805;BME280;47725;47.912;7.356;2023-05-11T08:43:54;99124.43;;;16.99;58.31
61805;BME280;47725;47.912;7.356;2023-05-11T08:47:54;99123.63;;;17.01;58.15
61805;BME280;47725;47.912;7.356;2023-05-11T08:51:54;99123.10;;;17.02;58.18
61805;BME280;47725;47.912;7.356;2023-05-11T08:55:56;99121.70;;;17.03;58.20
61805;BME280;47725;47.912;7.356;2023-05-11T08:59:54;99120.14;;;17.07;57.99
61805;BME280;47725;47.912;7.356;2023-05-11T09:03:55;99119.72;;;17.12;58.14
61805;BME280;47725;47.912;7.356;2023-05-11T09:07:56;99119.04;;;17.20;57.38
61805;BME280;47725;47.912;7.356;2023-05-11T09:11:54;99117.60;;;17.27;56.91
61805;BME280;47725;47.912;7.356;2023-05-11T09:15:54;99115.86;;;17.35;56.59
61805;BME280;47725;47.912;7.356;2023-05-11T09:20:00;99115.00;;;17.44;56.79
61805;BME280;47725;47.912;7.356;2023-05-11T09:23:54;99113.34;;;17.54;56.16
61805;BME280;47725;47.912;7.356;2023-05-11T09:27:54;99110.99;;;17.64;55.69
61805;BME280;47725;47.912;7.356;2023-05-11T09:31:54;99110.50;;;17.75;54.59
61805;BME280;47725;47.912;7.356;2023-05-11T09:35:54;99108.34;;;17.88;55.12
61805;BME280;47725;47.912;7.356;2023-05-11T09:39:54;99106.27;;;18.04;54.34
61805;BME280;47725;47.912;7.356;2023-05-11T09:44:02;99104.55;;;18.19;54.60
61805;BME280;47725;47.912;7.356;2023-05-11T09:47:54;99101.93;;;18.34;54.08
61805;BME280;47725;47.912;7.356;2023-05-11T09:51:59;99099.14;;;18.48;53.84
61805;BME280;47725;47.912;7.356;2023-05-11T09:55:54;99095.33;;;18.60;53.68
61805;BME280;47725;47.912;7.356;2023-05-11T09:59:54;99091.61;;;18.68;52.64
61805;BME280;47725;47.912;7.356;2023-05-11T10:03:54;99088.67;;;18.71;53.40
61805;BME280;47725;47.912;7.356;2023-05-11T10:08:00;99085.94;;;18.74;53.32
61805;BME280;47725;47.912;7.356;2023-05-11T10:11:54;99083.80;;;18.79;53.54
61805;BME280;47725;47.912;7.356;2023-05-11T10:15:54;99081.70;;;18.88;52.98
61805;BME280;47725;47.912;7.356;2023-05-11T10:19:54;99079.21;;;18.96;52.62
61805;BME280;47725;47.912;7.356;2023-05-11T10:23:55;99076.84;;;19.03;52.57
61805;BME280;47725;47.912;7.356;2023-05-11T10:27:54;99074.86;;;19.11;52.24
61805;BME280;47725;47.912;7.356;2023-05-11T10:31:54;99072.20;;;19.20;51.76
61805;BME280;47725;47.912;7.356;2023-05-11T10:35:54;99069.23;;;19.28;51.46
61805;BME280;47725;47.912;7.356;2023-05-11T10:39:54;99064.76;;;19.34;51.11
61805;BME280;47725;47.912;7.356;2023-05-11T10:56:06;99054.27;;;19.36;51.80
61805;BME280;47725;47.912;7.356;2023-05-11T11:04:03;99050.94;;;19.31;52.75
61805;BME280;47725;47.912;7.356;2023-05-11T11:08:00;99049.66;;;19.22;53.56
61805;BME280;47725;47.912;7.356;2023-05-11T11:11:54;99047.60;;;19.12;54.00
61805;BME280;47725;47.912;7.356;2023-05-11T11:19:54;99043.98;;;18.92;54.34
61805;BME280;47725;47.912;7.356;2023-05-11T11:23:54;99041.74;;;18.84;54.48
61805;BME280;47725;47.912;7.356;2023-05-11T11:27:54;99039.60;;;18.80;53.81
61805;BME280;47725;47.912;7.356;2023-05-11T11:31:54;99036.50;;;18.77;53.91
61805;BME280;47725;47.912;7.356;2023-05-11T11:35:54;99033.03;;;18.78;53.89
61805;BME280;47725;47.912;7.356;2023-05-11T11:39:54;99029.83;;;18.82;53.59
61805;BME280;47725;47.912;7.356;2023-05-11T11:43:54;99026.78;;;18.87;53.18
61805;BME280;47725;47.912;7.356;2023-05-11T11:51:54;99022.02;;;18.96;53.28
61805;BME280;47725;47.912;7.356;2023-05-11T11:55:54;99020.87;;;18.92;53.31
61805;BME280;47725;47.912;7.356;2023-05-11T11:59:54;99021.51;;;18.89;53.23
61805;BME280;47725;47.912;7.356;2023-05-11T12:07:54;99025.51;;;18.82;53.18
61805;BME280;47725;47.912;7.356;2023-05-11T12:11:54;99028.19;;;18.80;52.76
61805;BME280;47725;47.912;7.356;2023-05-11T12:16:06;99029.97;;;18.78;52.77
61805;BME280;47725;47.912;7.356;2023-05-11T12:19:54;99032.03;;;18.75;52.73
61805;BME280;47725;47.912;7.356;2023-05-11T12:23:54;99034.53;;;18.73;52.67
61805;BME280;47725;47.912;7.356;2023-05-11T12:27:54;99035.76;;;18.69;52.92
61805;BME280;47725;47.912;7.356;2023-05-11T12:31:54;99036.07;;;18.66;52.60
61805;BME280;47725;47.912;7.356;2023-05-11T12:35:54;99036.47;;;18.61;52.78
61805;BME280;47725;47.912;7.356;2023-05-11T12:39:54;99036.70;;;18.59;52.84
61805;BME280;47725;47.912;7.356;2023-05-11T12:43:54;99036.74;;;18.58;52.41
61805;BME280;47725;47.912;7.356;2023-05-11T12:47:54;99036.57;;;18.58;52.88
61805;BME280;47725;47.912;7.356;2023-05-11T12:52:01;99035.17;;;18.60;53.03
61805;BME280;47725;47.912;7.356;2023-05-11T12:55:57;99033.50;;;18.64;53.32
61805;BME280;47725;47.912;7.356;2023-05-11T13:00:09;99031.23;;;18.68;53.33
61805;BME280;47725;47.912;7.356;2023-05-11T13:03:54;99027.91;;;18.72;53.47
61805;BME280;47725;47.912;7.356;2023-05-11T13:08:01;99023.88;;;18.74;53.67
61805;BME280;47725;47.912;7.356;2023-05-11T13:12:09;99020.26;;;18.78;53.57
61805;BME280;47725;47.912;7.356;2023-05-11T13:15:54;99016.12;;;18.85;53.40
61805;BME280;47725;47.912;7.356;2023-05-11T13:19:54;99011.39;;;18.97;53.33
61805;BME280;47725;47.912;7.356;2023-05-11T13:23:54;99008.40;;;19.12;52.52
61805;BME280;47725;47.912;7.356;2023-05-11T13:27:54;99005.49;;;19.29;51.78
61805;BME280;47725;47.912;7.356;2023-05-11T13:31:54;99003.28;;;19.47;51.41
61805;BME280;47725;47.912;7.356;2023-05-11T13:35:54;99000.87;;;19.66;50.84
61805;BME280;47725;47.912;7.356;2023-05-11T13:39:54;98998.47;;;19.85;50.25
61805;BME280;47725;47.912;7.356;2023-05-11T13:43:54;98997.16;;;19.99;50.27
61805;BME280;47725;47.912;7.356;2023-05-11T13:47:54;98995.65;;;20.08;49.92
61805;BME280;47725;47.912;7.356;2023-05-11T13:51:54;98992.33;;;20.13;50.67
61805;BME280;47725;47.912;7.356;2023-05-11T13:55:54;98988.39;;;20.16;51.15
61805;BME280;47725;47.912;7.356;2023-05-11T13:59:54;98984.60;;;20.20;50.50
61805;BME280;47725;47.912;7.356;2023-05-11T14:03:54;98981.06;;;20.19;50.93
61805;BME280;47725;47.912;7.356;2023-05-11T14:07:54;98978.03;;;20.14;50.99
61805;BME280;47725;47.912;7.356;2023-05-11T14:11:54;98974.64;;;20.07;51.21
61805;BME280;47725;47.912;7.356;2023-05-11T14:15:54;98971.67;;;20.01;51.16
61805;BME280;47725;47.912;7.356;2023-05-11T14:19:54;98967.99;;;19.96;51.37
61805;BME280;47725;47.912;7.356;2023-05-11T14:23:54;98964.29;;;19.87;51.60
61805;BME280;47725;47.912;7.356;2023-05-11T14:27:54;98960.91;;;19.85;50.59
61805;BME280;47725;47.912;7.356;2023-05-11T14:31:54;98959.09;;;19.84;50.43
61805;BME280;47725;47.912;7.356;2023-05-11T14:35:54;98956.05;;;19.81;50.91
61805;BME280;47725;47.912;7.356;2023-05-11T14:39:54;98952.25;;;19.82;49.99
61805;BME280;47725;47.912;7.356;2023-05-11T14:43:54;98948.78;;;19.86;49.64
61805;BME280;47725;47.912;7.356;2023-05-11T14:47:54;98945.62;;;19.93;49.33
61805;BME280;47725;47.912;7.356;2023-05-11T14:51:54;98944.34;;;19.99;49.37
61805;BME280;47725;47.912;7.356;2023-05-11T14:55:54;98942.55;;;19.91;49.65
61805;BME280;47725;47.912;7.356;2023-05-11T14:59:54;98941.78;;;19.86;49.24
61805;BME280;47725;47.912;7.356;2023-05-11T15:03:54;98940.81;;;19.81;49.37
61805;BME280;47725;47.912;7.356;2023-05-11T15:07:54;98940.52;;;19.79;49.24
61805;BME280;47725;47.912;7.356;2023-05-11T15:11:54;98940.78;;;19.77;48.54
61805;BME280;47725;47.912;7.356;2023-05-11T15:15:53;98940.42;;;19.75;48.75
61805;BME280;47725;47.912;7.356;2023-05-11T15:19:53;98939.50;;;19.75;48.60
61805;BME280;47725;47.912;7.356;2023-05-11T15:23:53;98937.84;;;19.77;48.59
61805;BME280;47725;47.912;7.356;2023-05-11T15:27:53;98935.23;;;19.82;48.41
61805;BME280;47725;47.912;7.356;2023-05-11T15:31:53;98931.56;;;19.88;47.67
61805;BME280;47725;47.912;7.356;2023-05-11T15:35:53;98928.85;;;19.95;48.11
61805;BME280;47725;47.912;7.356;2023-05-11T15:39:53;98925.94;;;20.02;47.86
61805;BME280;47725;47.912;7.356;2023-05-11T15:43:53;98923.89;;;20.05;47.53
61805;BME280;47725;47.912;7.356;2023-05-11T15:47:53;98922.41;;;20.07;47.39
61805;BME280;47725;47.912;7.356;2023-05-11T15:51:53;98920.87;;;20.07;47.87
61805;BME280;47725;47.912;7.356;2023-05-11T15:55:53;98919.65;;;20.05;47.96
61805;BME280;47725;47.912;7.356;2023-05-11T15:59:53;98918.41;;;20.01;47.66
61805;BME280;47725;47.912;7.356;2023-05-11T16:03:53;98917.65;;;19.96;48.14
61805;BME280;47725;47.912;7.356;2023-05-11T16:07:53;98918.06;;;19.92;47.80
61805;BME280;47725;47.912;7.356;2023-05-11T16:11:53;98918.92;;;19.87;48.21
61805;BME280;47725;47.912;7.356;2023-05-11T16:15:53;98919.78;;;19.85;48.25
61805;BME280;47725;47.912;7.356;2023-05-11T16:19:53;98920.76;;;19.82;48.08
61805;BME280;47725;47.912;7.356;2023-05-11T16:23:53;98921.28;;;19.79;47.97
61805;BME280;47725;47.912;7.356;2023-05-11T16:27:53;98921.28;;;19.75;48.24
61805;BME280;47725;47.912;7.356;2023-05-11T16:31:53;98921.39;;;19.69;48.42
61805;BME280;47725;47.912;7.356;2023-05-11T16:35:53;98920.54;;;19.61;48.55
61805;BME280;47725;47.912;7.356;2023-05-11T16:39:53;98919.53;;;19.56;48.70
61805;BME280;47725;47.912;7.356;2023-05-11T16:43:54;98917.74;;;19.51;48.78
61805;BME280;47725;47.912;7.356;2023-05-11T16:47:53;98916.27;;;19.46;48.90
61805;BME280;47725;47.912;7.356;2023-05-11T16:51:53;98913.75;;;19.40;49.04
61805;BME280;47725;47.912;7.356;2023-05-11T16:55:54;98912.62;;;19.35;48.97
61805;BME280;47725;47.912;7.356;2023-05-11T16:59:53;98911.82;;;19.29;48.84
61805;BME280;47725;47.912;7.356;2023-05-11T17:03:53;98911.35;;;19.23;48.97
61805;BME280;47725;47.912;7.356;2023-05-11T17:07:53;98911.16;;;19.16;49.16
61805;BME280;47725;47.912;7.356;2023-05-11T17:11:54;98912.50;;;19.10;49.32
61805;BME280;47725;47.912;7.356;2023-05-11T17:15:54;98913.90;;;19.05;49.48
61805;BME280;47725;47.912;7.356;2023-05-11T17:19:53;98915.95;;;18.99;49.74
61805;BME280;47725;47.912;7.356;2023-05-11T17:23:53;98917.94;;;18.94;49.89
61805;BME280;47725;47.912;7.356;2023-05-11T17:27:53;98919.68;;;18.90;49.97
61805;BME280;47725;47.912;7.356;2023-05-11T17:31:53;98923.25;;;18.86;50.08
61805;BME280;47725;47.912;7.356;2023-05-11T17:35:53;98926.28;;;18.83;50.29
61805;BME280;47725;47.912;7.356;2023-05-11T17:39:53;98928.85;;;18.80;50.30
61805;BME280;47725;47.912;7.356;2023-05-11T17:43:53;98931.56;;;18.79;50.36
61805;BME280;47725;47.912;7.356;2023-05-11T17:47:53;98934.03;;;18.77;50.37
61805;BME280;47725;47.912;7.356;2023-05-11T17:51:53;98935.83;;;18.73;50.67
61805;BME280;47725;47.912;7.356;2023-05-11T17:55:56;98938.75;;;18.66;51.11
61805;BME280;47725;47.912;7.356;2023-05-11T17:59:53;98940.73;;;18.58;51.30
61805;BME280;47725;47.912;7.356;2023-05-11T18:03:53;98943.75;;;18.50;51.47
61805;BME280;47725;47.912;7.356;2023-05-11T18:07:53;98946.48;;;18.41;51.34
61805;BME280;47725;47.912;7.356;2023-05-11T18:11:53;98948.91;;;18.30;51.55
61805;BME280;47725;47.912;7.356;2023-05-11T18:15:56;98951.61;;;18.17;51.77
61805;BME280;47725;47.912;7.356;2023-05-11T18:19:53;98953.74;;;18.03;52.21
61805;BME280;47725;47.912;7.356;2023-05-11T18:23:53;98954.86;;;17.89;52.70
61805;BME280;47725;47.912;7.356;2023-05-11T18:27:53;98955.42;;;17.76;52.78
61805;BME280;47725;47.912;7.356;2023-05-11T18:31:53;98956.06;;;17.64;52.75
61805;BME280;47725;47.912;7.356;2023-05-11T18:35:53;98956.30;;;17.54;52.89
61805;BME280;47725;47.912;7.356;2023-05-11T18:39:53;98956.10;;;17.45;52.94
61805;BME280;47725;47.912;7.356;2023-05-11T18:43:53;98954.89;;;17.36;53.07
61805;BME280;47725;47.912;7.356;2023-05-11T18:47:53;98953.91;;;17.28;53.41
61805;BME280;47725;47.912;7.356;2023-05-11T18:51:53;98955.02;;;17.19;53.76
61805;BME280;47725;47.912;7.356;2023-05-11T18:55:53;98957.26;;;17.09;53.96
61805;BME280;47725;47.912;7.356;2023-05-11T18:59:53;98959.57;;;16.99;54.31
61805;BME280;47725;47.912;7.356;2023-05-11T19:03:53;98963.08;;;16.89;54.46
61805;BME280;47725;47.912;7.356;2023-05-11T19:07:53;98965.99;;;16.82;54.41
61805;BME280;47725;47.912;7.356;2023-05-11T19:11:53;98968.92;;;16.75;54.68
61805;BME280;47725;47.912;7.356;2023-05-11T19:15:53;98971.91;;;16.70;54.74
61805;BME280;47725;47.912;7.356;2023-05-11T19:19:53;98973.61;;;16.66;54.78
61805;BME280;47725;47.912;7.356;2023-05-11T19:23:53;98976.03;;;16.62;54.83
61805;BME280;47725;47.912;7.356;2023-05-11T19:27:53;98978.97;;;16.58;54.98
61805;BME280;47725;47.912;7.356;2023-05-11T19:31:53;98981.97;;;16.53;55.06
61805;BME280;47725;47.912;7.356;2023-05-11T19:35:53;98983.01;;;16.48;55.19
61805;BME280;47725;47.912;7.356;2023-05-11T19:39:53;98985.38;;;16.42;55.29
61805;BME280;47725;47.912;7.356;2023-05-11T19:43:53;98987.14;;;16.36;55.41
61805;BME280;47725;47.912;7.356;2023-05-11T19:47:53;98989.70;;;16.30;55.64
61805;BME280;47725;47.912;7.356;2023-05-11T19:51:53;98992.78;;;16.24;55.77
61805;BME280;47725;47.912;7.356;2023-05-11T19:55:53;98996.36;;;16.20;55.88
61805;BME280;47725;47.912;7.356;2023-05-11T19:59:53;98998.95;;;16.15;55.92
61805;BME280;47725;47.912;7.356;2023-05-11T20:03:53;99001.59;;;16.13;55.84
61805;BME280;47725;47.912;7.356;2023-05-11T20:07:53;99004.49;;;16.11;55.91
61805;BME280;47725;47.912;7.356;2023-05-11T20:11:53;99007.23;;;16.08;56.07
61805;BME280;47725;47.912;7.356;2023-05-11T20:15:53;99008.92;;;16.06;56.14
61805;BME280;47725;47.912;7.356;2023-05-11T20:19:53;99010.52;;;16.02;56.27
61805;BME280;47725;47.912;7.356;2023-05-11T20:23:53;99011.29;;;15.96;56.54
61805;BME280;47725;47.912;7.356;2023-05-11T20:27:53;99012.95;;;15.90;56.80
61805;BME280;47725;47.912;7.356;2023-05-11T20:31:53;99013.78;;;15.84;57.01
61805;BME280;47725;47.912;7.356;2023-05-11T20:35:53;99013.62;;;15.78;57.22
61805;BME280;47725;47.912;7.356;2023-05-11T20:39:53;99013.04;;;15.71;57.56
61805;BME280;47725;47.912;7.356;2023-05-11T20:43:53;99012.80;;;15.64;57.67
61805;BME280;47725;47.912;7.356;2023-05-11T20:47:53;99014.31;;;15.60;57.87
61805;BME280;47725;47.912;7.356;2023-05-11T20:51:53;99014.90;;;15.56;57.91
61805;BME280;47725;47.912;7.356;2023-05-11T20:55:53;99015.29;;;15.55;57.87
61805;BME280;47725;47.912;7.356;2023-05-11T20:59:53;99015.28;;;15.53;57.89
61805;BME280;47725;47.912;7.356;2023-05-11T21:03:53;99015.20;;;15.52;57.90
61805;BME280;47725;47.912;7.356;2023-05-11T21:07:53;99015.18;;;15.52;58.03
61805;BME280;47725;47.912;7.356;2023-05-11T21:11:53;99013.70;;;15.51;58.18
61805;BME280;47725;47.912;7.356;2023-05-11T21:15:53;99012.59;;;15.50;58.16
61805;BME280;47725;47.912;7.356;2023-05-11T21:19:53;99010.49;;;15.51;57.94
61805;BME280;47725;47.912;7.356;2023-05-11T21:23:53;99008.64;;;15.53;57.80
61805;BME280;47725;47.912;7.356;2023-05-11T21:27:53;99006.37;;;15.55;57.92
61805;BME280;47725;47.912;7.356;2023-05-11T21:31:53;99004.97;;;15.53;58.51
61805;BME280;47725;47.912;7.356;2023-05-11T21:35:53;99003.88;;;15.51;58.71
61805;BME280;47725;47.912;7.356;2023-05-11T21:39:53;99002.59;;;15.47;58.86
61805;BME280;47725;47.912;7.356;2023-05-11T21:43:53;99000.95;;;15.45;58.98
61805;BME280;47725;47.912;7.356;2023-05-11T21:47:53;98999.42;;;15.42;59.08